メインページ
METAR-TAF:

METAR-TAF

空港 :

カラマズー / バトルクリーク, ミシガン州, アメリカ合衆国

緯度: 42-13-45N, 経度: 085-32-47W, 海抜: 266m

現時点の気象観測

当レポートは11分前の13:53(UTC)に作成
西の風 9kt
気温 -2°C
湿度 69%
気圧 1017 hPa
視程: 14.5km
高度2000ftの雲はほとんどない
高度2600ftの曇り
小雪

METAR: KAZO 151353Z 28009KT 9SM -SN FEW020 OVC026 M02/M07 A3002 RMK AO2 SNB38 SLP176 P0000 T10221067

時間: 09:04 (14:04 UTC)

予報

当レポートは2時間39分前の11:25(UTC)に作成
予報は15日の 12時(UTC)から 16日の 12時(UTC)まで有効
西/北西の風 7kt
視程: 9.7km
高度2000ftの千切れ雲あり
弱いにわか雪, 靄
15日の 1400時(UTC)から
西の風 9kt
視程: 10km
高度1500ftの千切れ雲あり
15日の 2000時(UTC)から
西の風 7kt
視程: 10km
高度3500ftの千切れ雲あり
16日の 0100時(UTC)から
変向風 3kt
視程: 10km
高度5000ftの千切れ雲あり

TAF: KAZO 151125Z 1512/1612 29007KT 6SM -SHSN BR BKN020 FM151400 28009KT P6SM BKN015 FM152000 27007KT P6SM BKN035 FM160100 VRB03KT P6SM BKN050

4,000以上の空港の気象観測と天気予報(METAR報とTAF報)

利用可能な観測所は地図上に黄色い丸と赤い丸で示す。

丸の上にカーソルを重ねると観測所名を参照できる。

次にクリックすると気象観測と天気予報を参照できる。

マップの切り替え:黒色「×」印の緑ボタンをクリックして拡大、「-」印の緑ボタンをクリックして縮小、緑色の三角印をクリックして隣りの地図に切り替え


METAR-TAF: